Time;durP1;ratioP1;P1;durP2;ratioP2;P2;SDS_P1;SDS_P2;PMS_P1;PMS_P2;Temp;Humidity;BMP_temperature;BMP_pressure;BME280_temperature;BME280_humidity;BME280_pressure;Samples;Min_cycle;Max_cycle;Signal;HPM_P1;HPM_P2
2021/10/16 00:01:15;;;;;;;;;;;;;;;12.46;56.42;101434.63;5093343;28;19924;-65
2021/10/16 00:03:42;;;;;;;;;;;;;;;12.44;56.60;101427.75;5093316;28;19924;-58
2021/10/16 00:06:08;;;;;;;;;;;;;;;12.43;56.57;101423.41;5093354;28;20327;-59
2021/10/16 00:08:35;;;;;;;;;;;;;;;12.44;56.41;101425.13;5092818;28;19978;-59
2021/10/16 00:11:01;;;;;;;;;;;;;;;12.45;56.52;101427.66;5092734;28;19924;-60
2021/10/16 00:13:28;;;;;;;;;;;;;;;12.43;56.47;101429.53;5092901;28;19946;-59
2021/10/16 00:15:54;;;;;;;;;;;;;;;12.47;56.56;101428.44;5093332;28;19928;-60
2021/10/16 00:18:21;;;;;;;;;;;;;;;12.45;56.59;101429.44;5078859;28;19970;-62
2021/10/16 00:20:48;;;;;;;;;;;;;;;12.41;56.60;101423.50;5091068;28;19928;-59
2021/10/16 00:23:14;;;;;;;;;;;;;;;12.35;56.76;101426.44;5093014;28;19950;-59
2021/10/16 00:25:42;;;;;;;;;;;;;;;12.37;56.86;101428.06;5092804;28;19924;-59
2021/10/16 00:28:09;;;;;;;;;;;;;;;12.40;56.73;101429.69;5092589;28;19924;-64
2021/10/16 00:30:35;;;;;;;;;;;;;;;12.41;56.68;101432.22;5092814;28;19954;-59
2021/10/16 00:33:02;;;;;;;;;;;;;;;12.39;56.81;101425.34;5093120;28;19939;-63
2021/10/16 00:35:28;;;;;;;;;;;;;;;12.37;56.88;101429.88;5092772;28;19924;-59
2021/10/16 00:37:55;;;;;;;;;;;;;;;12.36;56.80;101433.41;5092215;28;19928;-59
2021/10/16 00:40:24;;;;;;;;;;;;;;;12.34;57.04;101437.91;5092730;28;19928;-64
2021/10/16 00:42:52;;;;;;;;;;;;;;;12.30;56.97;101439.84;5092614;28;19931;-59
2021/10/16 00:45:19;;;;;;;;;;;;;;;12.28;57.16;101439.09;5092889;28;19924;-61
2021/10/16 00:47:46;;;;;;;;;;;;;;;12.28;57.06;101441.72;5092576;28;19924;-59
2021/10/16 00:50:14;;;;;;;;;;;;;;;12.31;57.16;101435.44;5092640;28;19928;-59
2021/10/16 00:52:41;;;;;;;;;;;;;;;12.30;57.04;101436.38;5092717;28;20402;-60
2021/10/16 00:55:08;;;;;;;;;;;;;;;12.29;57.05;101438.16;5092767;28;20376;-60
2021/10/16 00:57:35;;;;;;;;;;;;;;;12.28;57.24;101438.22;5091941;28;19924;-59
2021/10/16 01:00:06;;;;;;;;;;;;;;;12.25;57.23;101431.34;5092585;28;19928;-60
2021/10/16 01:02:33;;;;;;;;;;;;;;;12.18;57.39;101430.81;5092576;28;19977;-59
2021/10/16 01:05:00;;;;;;;;;;;;;;;12.15;57.55;101428.38;5092422;28;19924;-63
2021/10/16 01:07:28;;;;;;;;;;;;;;;12.13;57.46;101422.31;5092417;28;20388;-60
2021/10/16 01:09:55;;;;;;;;;;;;;;;12.11;57.64;101420.69;5091935;28;19928;-60
2021/10/16 01:12:21;;;;;;;;;;;;;;;12.13;57.56;101424.13;5092345;28;19924;-61
2021/10/16 01:15:07;;;;;;;;;;;;;;;12.12;57.62;101415.34;5092460;28;19932;-60
2021/10/16 01:17:35;;;;;;;;;;;;;;;12.09;57.66;101407.63;5084682;28;19935;-59
2021/10/16 01:20:12;;;;;;;;;;;;;;;12.07;57.77;101417.38;5090827;28;19928;-58
2021/10/16 01:22:40;;;;;;;;;;;;;;;12.05;57.83;101420.09;5092440;28;20312;-59
2021/10/16 01:25:12;;;;;;;;;;;;;;;12.03;57.84;101413.22;5092194;28;19924;-59
2021/10/16 01:27:39;;;;;;;;;;;;;;;12.02;57.88;101419.41;5078774;28;19924;-60
2021/10/16 01:30:07;;;;;;;;;;;;;;;11.99;57.96;101416.94;5092303;28;19924;-60
2021/10/16 01:32:34;;;;;;;;;;;;;;;11.97;57.96;101408.25;5092202;28;19924;-60
2021/10/16 01:35:01;;;;;;;;;;;;;;;11.97;58.00;101418.78;5080609;28;19935;-63
2021/10/16 01:37:27;;;;;;;;;;;;;;;11.96;58.12;101417.94;5089696;28;20269;-60
2021/10/16 01:39:54;;;;;;;;;;;;;;;11.95;58.07;101410.09;5094310;28;19928;-59
2021/10/16 01:42:21;;;;;;;;;;;;;;;11.93;58.08;101411.03;5092479;28;19924;-61
2021/10/16 01:44:47;;;;;;;;;;;;;;;11.90;58.45;101418.22;5096081;28;19924;-60
2021/10/16 01:47:14;;;;;;;;;;;;;;;11.89;58.10;101417.34;5096313;28;19932;-60
2021/10/16 01:49:40;;;;;;;;;;;;;;;11.88;58.22;101412.19;5081888;28;19924;-60
2021/10/16 01:52:07;;;;;;;;;;;;;;;11.86;58.21;101414.03;5095857;28;19931;-59
2021/10/16 01:54:33;;;;;;;;;;;;;;;11.85;58.30;101407.94;5095998;28;19924;-60
2021/10/16 01:57:00;;;;;;;;;;;;;;;11.81;58.35;101416.91;5095825;28;19931;-59
2021/10/16 01:59:27;;;;;;;;;;;;;;;11.80;58.36;101417.00;5094911;28;19924;-65
2021/10/16 02:02:09;;;;;;;;;;;;;;;11.75;58.33;101420.69;5095855;28;20407;-59
2021/10/16 02:04:36;;;;;;;;;;;;;;;11.75;58.42;101423.31;5095860;28;19932;-60
2021/10/16 02:07:02;;;;;;;;;;;;;;;11.71;58.34;101416.53;5095859;28;19928;-63
2021/10/16 02:09:29;;;;;;;;;;;;;;;11.65;58.51;101416.00;5095157;28;19925;-58
2021/10/16 02:11:55;;;;;;;;;;;;;;;11.61;58.62;101404.78;5095486;28;19973;-59
2021/10/16 02:14:22;;;;;;;;;;;;;;;11.58;58.59;101418.94;5095610;28;19932;-59
2021/10/16 02:16:48;;;;;;;;;;;;;;;11.57;58.50;101422.47;5093878;28;19924;-59
2021/10/16 02:19:19;;;;;;;;;;;;;;;11.54;58.50;101414.75;5077267;28;19925;-59
2021/10/16 02:21:45;;;;;;;;;;;;;;;11.52;58.41;101413.13;5089385;28;19930;-59
2021/10/16 02:24:12;;;;;;;;;;;;;;;11.51;58.29;101424.56;5095367;28;20065;-59
2021/10/16 02:26:38;;;;;;;;;;;;;;;11.48;58.37;101420.31;5095315;28;19928;-59
2021/10/16 02:29:05;;;;;;;;;;;;;;;11.49;58.37;101421.16;5095107;28;19931;-61
2021/10/16 02:31:31;;;;;;;;;;;;;;;11.50;58.22;101412.34;5095356;28;19947;-60
2021/10/16 02:33:58;;;;;;;;;;;;;;;11.48;58.26;101417.69;5094774;28;19946;-61
2021/10/16 02:36:24;;;;;;;;;;;;;;;11.48;58.18;101417.69;5095428;28;19997;-60
2021/10/16 02:38:51;;;;;;;;;;;;;;;11.46;58.17;101416.06;5080808;28;19954;-65
2021/10/16 02:41:18;;;;;;;;;;;;;;;11.44;58.19;101416.97;5094834;28;19928;-59
2021/10/16 02:43:44;;;;;;;;;;;;;;;11.42;58.31;101420.63;5095083;28;19924;-60
2021/10/16 02:46:11;;;;;;;;;;;;;;;11.37;58.28;101422.63;5091625;28;19966;-62
2021/10/16 02:48:37;;;;;;;;;;;;;;;11.32;58.27;101422.00;5095007;28;19930;-65
2021/10/16 02:51:04;;;;;;;;;;;;;;;11.26;58.33;101431.88;5093953;28;20400;-64
2021/10/16 02:53:30;;;;;;;;;;;;;;;11.24;58.27;101419.75;5095044;28;19977;-59
2021/10/16 02:55:57;;;;;;;;;;;;;;;11.21;58.26;101426.00;5094433;28;19924;-59
2021/10/16 02:58:23;;;;;;;;;;;;;;;11.20;58.28;101428.69;5094828;28;19924;-59
2021/10/16 03:00:50;;;;;;;;;;;;;;;11.18;58.35;101423.50;5089824;28;19925;-59
2021/10/16 03:03:17;;;;;;;;;;;;;;;11.20;58.26;101426.06;5080210;28;19924;-60
2021/10/16 03:05:44;;;;;;;;;;;;;;;11.18;58.29;101428.75;5091190;28;19924;-59
2021/10/16 03:08:10;;;;;;;;;;;;;;;11.18;58.31;101431.38;5090971;28;20011;-60
2021/10/16 03:10:37;;;;;;;;;;;;;;;11.18;58.32;101431.38;5090747;28;20007;-65
2021/10/16 03:13:03;;;;;;;;;;;;;;;11.19;58.20;101432.25;5071058;28;19934;-59
2021/10/16 03:15:30;;;;;;;;;;;;;;;11.19;58.32;101435.72;5071070;28;19924;-59
2021/10/16 03:17:57;;;;;;;;;;;;;;;11.19;58.36;101438.34;5059210;28;19929;-64
2021/10/16 03:20:23;;;;;;;;;;;;;;;11.16;58.48;101438.50;5067625;28;19933;-59
2021/10/16 03:22:49;;;;;;;;;;;;;;;11.15;58.52;101436.81;5070599;28;20373;-59
2021/10/16 03:25:16;;;;;;;;;;;;;;;11.19;58.56;101437.50;5070436;28;19974;-60
2021/10/16 03:27:43;;;;;;;;;;;;;;;11.19;58.50;101430.47;5070571;28;20023;-59
2021/10/16 03:30:09;;;;;;;;;;;;;;;11.19;58.65;101440.97;5070571;28;19924;-59
2021/10/16 03:32:36;;;;;;;;;;;;;;;11.20;58.67;101445.31;5070353;28;19929;-59
2021/10/16 03:35:02;;;;;;;;;;;;;;;11.16;58.82;101443.75;5070520;28;19990;-59
2021/10/16 03:37:29;;;;;;;;;;;;;;;10.98;59.13;101448.09;5070410;28;19932;-59
2021/10/16 03:39:55;;;;;;;;;;;;;;;11.01;58.96;101445.34;5070097;28;19955;-60
2021/10/16 03:42:22;;;;;;;;;;;;;;;11.02;58.94;101446.16;5070319;28;19924;-60
2021/10/16 03:44:48;;;;;;;;;;;;;;;10.98;59.01;101452.50;5069722;28;20335;-59
2021/10/16 03:47:15;;;;;;;;;;;;;;;10.97;59.05;101462.16;5070518;28;19962;-60
2021/10/16 03:49:41;;;;;;;;;;;;;;;10.99;58.79;101451.59;5070108;28;20373;-59
2021/10/16 03:52:08;;;;;;;;;;;;;;;10.99;58.88;101448.97;5070179;28;19925;-59
2021/10/16 03:54:35;;;;;;;;;;;;;;;10.98;58.82;101449.88;5070206;28;19928;-59
2021/10/16 03:57:01;;;;;;;;;;;;;;;10.95;59.03;101451.72;5070253;28;19928;-59
2021/10/16 03:59:28;;;;;;;;;;;;;;;10.97;58.93;101449.03;5069621;28;19928;-59
2021/10/16 04:01:54;;;;;;;;;;;;;;;10.97;58.84;101458.66;5063139;28;20736;-58
2021/10/16 04:04:21;;;;;;;;;;;;;;;11.00;58.74;101448.03;5069270;28;20316;-59
2021/10/16 04:06:47;;;;;;;;;;;;;;;11.00;58.86;101450.66;5070037;28;19925;-59
2021/10/16 04:09:15;;;;;;;;;;;;;;;11.02;58.92;101447.03;5069218;28;19925;-60
2021/10/16 04:11:42;;;;;;;;;;;;;;;11.03;58.97;101451.34;5078291;28;19928;-59
2021/10/16 04:14:08;;;;;;;;;;;;;;;11.05;58.94;101451.31;5089729;28;19935;-60
2021/10/16 04:16:35;;;;;;;;;;;;;;;11.02;59.12;101452.28;5086784;28;19924;-59
2021/10/16 04:19:01;;;;;;;;;;;;;;;10.97;59.27;101451.66;5075780;28;19928;-58
2021/10/16 04:21:28;;;;;;;;;;;;;;;10.95;59.25;101451.72;5090001;28;19924;-59
2021/10/16 04:23:54;;;;;;;;;;;;;;;10.92;59.27;101449.25;5089608;28;20291;-59
2021/10/16 04:26:21;;;;;;;;;;;;;;;10.87;59.32;101451.22;5089936;28;19932;-59
2021/10/16 04:28:48;;;;;;;;;;;;;;;10.84;59.44;101455.78;5089630;28;20280;-60
2021/10/16 04:31:14;;;;;;;;;;;;;;;10.84;59.31;101456.59;5089730;28;19977;-64
2021/10/16 04:33:41;;;;;;;;;;;;;;;10.87;59.28;101467.00;5089565;28;20372;-58
2021/10/16 04:36:07;;;;;;;;;;;;;;;10.84;59.41;101463.66;5089698;28;19925;-61
2021/10/16 04:38:34;;;;;;;;;;;;;;;10.78;59.41;101464.78;5089583;28;19971;-58
2021/10/16 04:41:01;;;;;;;;;;;;;;;10.76;59.49;101474.50;5089091;28;19931;-59
2021/10/16 04:43:28;;;;;;;;;;;;;;;10.74;59.51;101471.09;5088849;28;19946;-60
2021/10/16 04:45:55;;;;;;;;;;;;;;;10.72;59.44;101465.91;5089265;28;19973;-60
2021/10/16 04:48:22;;;;;;;;;;;;;;;10.66;59.45;101471.44;5089645;28;19924;-58
2021/10/16 04:50:51;;;;;;;;;;;;;;;10.63;59.55;101474.22;5089332;28;19977;-60
2021/10/16 04:53:17;;;;;;;;;;;;;;;10.59;59.69;101472.66;5089534;28;19930;-59
2021/10/16 04:55:44;;;;;;;;;;;;;;;10.57;59.60;101479.72;5089238;28;19959;-59
2021/10/16 04:58:11;;;;;;;;;;;;;;;10.54;59.56;101479.84;5075378;28;19928;-60
2021/10/16 05:00:37;;;;;;;;;;;;;;;10.49;59.61;101472.22;5089392;28;20417;-59
2021/10/16 05:03:05;;;;;;;;;;;;;;;10.50;59.61;101480.91;5088941;28;20391;-60
2021/10/16 05:05:33;;;;;;;;;;;;;;;10.43;59.66;101481.19;5089380;28;19930;-59
2021/10/16 05:08:00;;;;;;;;;;;;;;;10.42;59.66;101482.13;5079979;28;19932;-58
2021/10/16 05:10:26;;;;;;;;;;;;;;;10.42;59.62;101476.88;5088694;28;20311;-59
2021/10/16 05:12:53;;;;;;;;;;;;;;;10.40;59.68;101473.47;5088580;28;20285;-58
2021/10/16 05:15:20;;;;;;;;;;;;;;;10.37;59.60;101473.56;5092631;28;19977;-59
2021/10/16 05:17:46;;;;;;;;;;;;;;;10.35;59.69;101483.28;5083947;28;19958;-58
2021/10/16 05:20:13;;;;;;;;;;;;;;;10.35;59.58;101471.91;5088596;28;19928;-59
2021/10/16 05:22:39;;;;;;;;;;;;;;;10.40;59.45;101481.34;5093170;28;19947;-60
2021/10/16 05:25:06;;;;;;;;;;;;;;;10.41;59.49;101484.81;5092212;28;19982;-59
2021/10/16 05:27:32;;;;;;;;;;;;;;;10.44;59.58;101476.81;5093200;28;19924;-59
2021/10/16 05:29:59;;;;;;;;;;;;;;;10.47;59.53;101484.53;5093109;28;19924;-59
2021/10/16 05:32:25;;;;;;;;;;;;;;;10.47;59.51;101487.16;5078594;28;19928;-60
2021/10/16 05:34:52;;;;;;;;;;;;;;;10.43;59.58;101494.31;5093012;28;19924;-60
2021/10/16 05:37:19;;;;;;;;;;;;;;;10.42;59.75;101500.50;5093148;28;19947;-58
2021/10/16 05:39:45;;;;;;;;;;;;;;;10.42;59.65;101497.88;5092698;28;20295;-59
2021/10/16 05:42:12;;;;;;;;;;;;;;;10.39;59.69;101505.03;5092268;28;20326;-59
2021/10/16 05:44:38;;;;;;;;;;;;;;;10.41;59.60;101497.91;5092843;28;19924;-59
2021/10/16 05:47:05;;;;;;;;;;;;;;;10.41;59.64;101498.78;5092565;28;19924;-59
2021/10/16 05:49:31;;;;;;;;;;;;;;;10.42;59.60;101504.88;5092825;28;19928;-62
2021/10/16 05:51:58;;;;;;;;;;;;;;;10.43;59.67;101506.59;5092733;28;20053;-62
2021/10/16 05:54:24;;;;;;;;;;;;;;;10.42;59.56;101518.88;5092475;28;19990;-59
2021/10/16 05:56:51;;;;;;;;;;;;;;;10.43;59.64;101509.22;5092628;28;20281;-58
2021/10/16 05:59:18;;;;;;;;;;;;;;;10.40;59.66;101511.97;5091623;28;20380;-59
2021/10/16 06:01:44;;;;;;;;;;;;;;;10.41;59.68;101518.91;5085657;28;20295;-59
2021/10/16 06:04:11;;;;;;;;;;;;;;;10.39;59.61;101518.97;5092293;28;19928;-59
2021/10/16 06:06:38;;;;;;;;;;;;;;;10.38;59.79;101526.94;5092164;28;19935;-59
2021/10/16 06:09:04;;;;;;;;;;;;;;;10.37;59.82;101522.59;5091785;28;19928;-61
2021/10/16 06:11:31;;;;;;;;;;;;;;;10.36;59.77;101536.63;5092164;28;19924;-59
2021/10/16 06:13:58;;;;;;;;;;;;;;;10.37;59.70;101533.91;5092165;28;19928;-57
2021/10/16 06:16:25;;;;;;;;;;;;;;;10.38;59.59;101529.56;5076936;28;19924;-58
2021/10/16 06:18:51;;;;;;;;;;;;;;;10.39;59.70;101534.72;5073661;28;20379;-58
2021/10/16 06:21:17;;;;;;;;;;;;;;;10.40;59.69;101536.44;5073771;28;20296;-58
2021/10/16 06:23:44;;;;;;;;;;;;;;;10.41;59.71;101542.53;5079872;28;19925;-61
2021/10/16 06:26:10;;;;;;;;;;;;;;;10.44;59.61;101545.03;5075618;28;19928;-58
2021/10/16 06:28:37;;;;;;;;;;;;;;;10.49;59.74;101550.06;5073146;28;19929;-58
2021/10/16 06:31:03;;;;;;;;;;;;;;;10.48;59.74;101559.72;5071063;28;19929;-57
2021/10/16 06:33:31;;;;;;;;;;;;;;;10.53;59.79;101556.91;5071147;28;19931;-60
2021/10/16 06:36:00;;;;;;;;;;;;;;;10.54;59.79;101562.06;5075550;28;19973;-57
2021/10/16 06:38:27;;;;;;;;;;;;;;;10.57;59.79;101555.84;5074125;28;19952;-58
2021/10/16 06:40:53;;;;;;;;;;;;;;;10.62;59.81;101565.22;5073908;28;20399;-57
2021/10/16 06:43:20;;;;;;;;;;;;;;;10.70;59.67;101570.13;5072016;28;19924;-58
2021/10/16 06:45:56;;;;;;;;;;;;;;;10.75;59.81;101564.69;5075529;28;19998;-65
2021/10/16 06:48:25;;;;;;;;;;;;;;;10.83;59.69;101570.47;5085604;28;19928;-58
2021/10/16 06:50:51;;;;;;;;;;;;;;;10.93;59.58;101574.38;5091337;28;19934;-58
2021/10/16 06:53:18;;;;;;;;;;;;;;;11.07;59.37;101580.75;5091511;28;19924;-58
2021/10/16 06:55:45;;;;;;;;;;;;;;;11.25;59.19;101577.31;5081938;28;19925;-58
2021/10/16 06:58:12;;;;;;;;;;;;;;;11.44;58.91;101581.72;5082529;28;20494;-59
2021/10/16 07:00:38;;;;;;;;;;;;;;;11.63;58.51;101572.94;5091264;28;19931;-58
2021/10/16 07:03:07;;;;;;;;;;;;;;;11.84;58.10;101566.66;5091009;28;19928;-58
2021/10/16 07:05:34;;;;;;;;;;;;;;;12.01;57.85;101578.16;5087445;28;20626;-59
2021/10/16 07:08:00;;;;;;;;;;;;;;;12.16;57.54;101576.53;5088198;28;20296;-60
2021/10/16 07:10:27;;;;;;;;;;;;;;;12.36;57.39;101579.00;5090121;28;19932;-60
2021/10/16 07:12:53;;;;;;;;;;;;;;;12.54;57.14;101585.16;5090783;28;19932;-60
2021/10/16 07:15:20;;;;;;;;;;;;;;;12.69;56.90;101582.63;5091099;28;19969;-65
2021/10/16 07:17:46;;;;;;;;;;;;;;;12.87;56.51;101586.09;5078011;28;20400;-60
2021/10/16 07:20:13;;;;;;;;;;;;;;;13.03;56.27;101592.25;5086467;28;19931;-59
2021/10/16 07:22:39;;;;;;;;;;;;;;;13.20;55.86;101588.72;5090661;28;19925;-61
2021/10/16 07:25:06;;;;;;;;;;;;;;;13.35;55.66;101597.56;5090645;28;19924;-60
2021/10/16 07:27:33;;;;;;;;;;;;;;;13.49;55.23;101598.63;5090817;28;19931;-59
2021/10/16 07:29:59;;;;;;;;;;;;;;;13.58;55.04;101602.53;5090927;28;20443;-60
2021/10/16 07:32:26;;;;;;;;;;;;;;;13.69;55.07;101606.28;5091060;28;19928;-63
2021/10/16 07:34:52;;;;;;;;;;;;;;;13.79;54.91;101606.63;5080580;28;19929;-61
2021/10/16 07:37:19;;;;;;;;;;;;;;;13.80;54.85;101615.38;5086592;28;19935;-60
2021/10/16 07:39:45;;;;;;;;;;;;;;;13.96;54.62;101612.72;5090604;28;20347;-60
2021/10/16 07:42:12;;;;;;;;;;;;;;;13.94;54.83;101614.59;5090736;28;19928;-60
2021/10/16 07:44:38;;;;;;;;;;;;;;;14.11;54.51;101603.91;5090683;28;19931;-60
2021/10/16 07:47:05;;;;;;;;;;;;;;;14.29;54.14;101619.63;5090316;28;19924;-60
2021/10/16 07:49:31;;;;;;;;;;;;;;;14.30;53.99;101613.41;5090616;28;19936;-60
2021/10/16 07:51:58;;;;;;;;;;;;;;;14.49;53.85;101610.53;5089512;28;19928;-61
2021/10/16 07:54:24;;;;;;;;;;;;;;;14.57;53.70;101610.91;5090339;28;19924;-61
2021/10/16 07:56:51;;;;;;;;;;;;;;;14.74;53.41;101620.53;5088981;28;19932;-60
2021/10/16 07:59:18;;;;;;;;;;;;;;;14.78;53.20;101616.75;5089920;28;19925;-60
2021/10/16 08:01:44;;;;;;;;;;;;;;;14.97;53.04;101621.75;5090158;28;19924;-61
2021/10/16 08:04:11;;;;;;;;;;;;;;;15.19;52.24;101620.44;5090265;28;19932;-60
2021/10/16 08:06:38;;;;;;;;;;;;;;;15.34;52.16;101616.84;5089917;28;19931;-59
2021/10/16 08:09:04;;;;;;;;;;;;;;;15.40;52.15;101628.84;5088886;28;19928;-60
2021/10/16 08:11:31;;;;;;;;;;;;;;;15.52;52.06;101628.03;5090112;28;19936;-60
2021/10/16 08:13:57;;;;;;;;;;;;;;;15.72;51.73;101622.41;5090155;28;19982;-59
2021/10/16 08:16:24;;;;;;;;;;;;;;;15.79;51.85;101629.03;5089874;28;19948;-60
2021/10/16 08:18:50;;;;;;;;;;;;;;;15.87;51.33;101631.19;5075351;28;20412;-61
2021/10/16 08:21:17;;;;;;;;;;;;;;;16.04;51.03;101628.31;5089014;28;19928;-60
2021/10/16 08:23:44;;;;;;;;;;;;;;;16.26;50.65;101626.88;5089503;28;19931;-60
2021/10/16 08:26:10;;;;;;;;;;;;;;;16.40;50.28;101623.31;5088872;28;19928;-60
2021/10/16 08:28:37;;;;;;;;;;;;;;;16.54;50.06;101628.53;5089727;28;20325;-59
2021/10/16 08:31:05;;;;;;;;;;;;;;;16.57;49.92;101625.69;5089693;28;20395;-60
2021/10/16 08:33:34;;;;;;;;;;;;;;;16.68;49.82;101629.41;5089910;28;20395;-60
2021/10/16 08:36:01;;;;;;;;;;;;;;;16.84;49.51;101629.19;5089682;28;19924;-59
2021/10/16 08:38:28;;;;;;;;;;;;;;;17.00;49.27;101627.22;5090047;28;19966;-59
2021/10/16 08:40:54;;;;;;;;;;;;;;;17.19;48.59;101631.19;5088505;28;19970;-60
2021/10/16 08:43:21;;;;;;;;;;;;;;;17.32;48.36;101637.34;5089475;28;19928;-60
2021/10/16 08:45:48;;;;;;;;;;;;;;;17.55;47.77;101640.16;5089678;28;19928;-60
2021/10/16 08:48:15;;;;;;;;;;;;;;;17.71;47.73;101634.59;5089351;28;19924;-59
2021/10/16 08:50:45;;;;;;;;;;;;;;;17.92;47.28;101643.63;5088975;28;19928;-60
2021/10/16 08:53:12;;;;;;;;;;;;;;;18.09;46.69;101646.88;5089394;28;19924;-59
2021/10/16 08:55:40;;;;;;;;;;;;;;;18.31;46.31;101640.81;5089390;28;20392;-61
2021/10/16 08:58:06;;;;;;;;;;;;;;;18.45;46.40;101637.13;5087028;28;20288;-63
2021/10/16 09:00:51;;;;;;;;;;;;;;;18.60;46.00;101637.75;5080818;28;19942;-60
2021/10/16 09:03:29;;;;;;;;;;;;;;;18.74;45.71;101640.22;5089371;28;19928;-59
2021/10/16 09:06:10;;;;;;;;;;;;;;;18.94;45.19;101640.50;5089138;28;19931;-60
2021/10/16 09:08:42;;;;;;;;;;;;;;;19.11;45.04;101636.53;5076752;28;20296;-62
2021/10/16 09:11:19;;;;;;;;;;;;;;;19.30;44.36;101643.91;5088941;28;20360;-59
2021/10/16 09:13:53;;;;;;;;;;;;;;;19.50;44.00;101641.44;5086934;28;19931;-60
2021/10/16 09:16:25;;;;;;;;;;;;;;;19.70;43.57;101639.84;5084496;28;19928;-60
2021/10/16 09:18:52;;;;;;;;;;;;;;;19.89;43.57;101640.03;5074516;28;19946;-59
2021/10/16 09:21:20;;;;;;;;;;;;;;;20.11;42.83;101640.94;5089084;28;19925;-60
2021/10/16 09:23:48;;;;;;;;;;;;;;;20.28;42.70;101638.69;5088640;28;19932;-59
2021/10/16 09:26:14;;;;;;;;;;;;;;;20.46;41.99;101636.31;5089034;28;20250;-59
2021/10/16 09:28:41;;;;;;;;;;;;;;;20.63;41.65;101633.06;5088995;28;19971;-59
2021/10/16 09:31:10;;;;;;;;;;;;;;;20.79;41.46;101631.78;5081678;28;19928;-60
2021/10/16 09:33:47;;;;;;;;;;;;;;;20.91;40.92;101638.69;5089157;28;19927;-60
2021/10/16 09:36:31;;;;;;;;;;;;;;;21.11;40.59;101633.47;5075915;28;19932;-59
2021/10/16 09:38:58;;;;;;;;;;;;;;;21.27;39.93;101631.13;5088453;28;19970;-61
2021/10/16 09:41:26;;;;;;;;;;;;;;;21.39;39.87;101633.69;5089030;28;19928;-60
2021/10/16 09:43:53;;;;;;;;;;;;;;;21.57;39.53;101636.56;5088628;28;19924;-60
2021/10/16 09:46:21;;;;;;;;;;;;;;;21.67;39.41;101637.44;5088973;28;19936;-60
2021/10/16 09:48:47;;;;;;;;;;;;;;;21.74;39.42;101633.25;5082473;28;19939;-64
2021/10/16 09:51:15;;;;;;;;;;;;;;;21.88;38.85;101634.66;5088980;28;19928;-63
2021/10/16 09:53:42;;;;;;;;;;;;;;;21.93;38.83;101637.75;5088696;28;19947;-60
2021/10/16 09:56:10;;;;;;;;;;;;;;;22.16;38.35;101634.81;5088601;28;19924;-60
2021/10/16 09:58:37;;;;;;;;;;;;;;;22.25;37.84;101631.28;5088515;28;20643;-65
2021/10/16 10:01:04;;;;;;;;;;;;;;;22.35;37.58;101624.09;5091285;28;19925;-64
2021/10/16 10:03:32;;;;;;;;;;;;;;;22.47;37.53;101623.97;5091751;28;19947;-60
2021/10/16 10:05:58;;;;;;;;;;;;;;;22.57;37.34;101618.59;5086420;28;19947;-60
2021/10/16 10:08:25;;;;;;;;;;;;;;;22.52;37.23;101628.88;5092321;28;19931;-61
2021/10/16 10:10:52;;;;;;;;;;;;;;;22.58;36.82;101629.16;5091642;28;20404;-60
2021/10/16 10:13:18;;;;;;;;;;;;;;;22.74;36.29;101623.22;5092250;28;19986;-60
2021/10/16 10:15:45;;;;;;;;;;;;;;;22.73;36.17;101621.50;5092444;28;20006;-60
2021/10/16 10:20:58;;;;;;;;;;;;;;;23.07;35.29;101615.63;5078803;28;19928;-60
2021/10/16 10:23:26;;;;;;;;;;;;;;;23.23;34.92;101617.66;5092238;28;19924;-60
2021/10/16 10:26:13;;;;;;;;;;;;;;;23.22;35.02;101618.66;5077760;28;20376;-61
2021/10/16 10:29:09;;;;;;;;;;;;;;;23.37;34.72;101619.00;5084909;28;19924;-60
2021/10/16 10:31:44;;;;;;;;;;;;;;;23.45;34.40;101610.22;5083258;28;19924;-60
2021/10/16 10:34:18;;;;;;;;;;;;;;;23.53;34.40;101606.78;5091735;28;19978;-61
2021/10/16 10:36:46;;;;;;;;;;;;;;;23.63;34.12;101604.91;5091654;28;20429;-61
2021/10/16 10:39:33;;;;;;;;;;;;;;;23.74;33.80;101603.81;5090013;28;19955;-61
2021/10/16 10:42:12;;;;;;;;;;;;;;;23.87;33.52;101595.38;5073205;28;20366;-62
2021/10/16 10:45:03;;;;;;;;;;;;;;;23.94;33.18;101602.69;5078613;28;20015;-63
2021/10/16 10:47:35;;;;;;;;;;;;;;;23.92;33.32;101606.53;5088180;28;19924;-62
2021/10/16 10:50:09;;;;;;;;;;;;;;;23.93;33.20;101603.72;5091640;28;20292;-63
2021/10/16 10:52:54;;;;;;;;;;;;;;;24.09;33.00;101604.84;5090028;28;19924;-61
2021/10/16 10:55:21;;;;;;;;;;;;;;;24.27;32.45;101594.06;5079260;28;19924;-61
2021/10/16 10:57:49;;;;;;;;;;;;;;;24.34;32.26;101591.59;5090874;28;19932;-61
2021/10/16 11:00:17;;;;;;;;;;;;;;;24.45;32.01;101588.66;5090894;28;19932;-61
2021/10/16 11:02:43;;;;;;;;;;;;;;;24.52;31.76;101587.03;5090679;28;20312;-67
2021/10/16 11:05:32;;;;;;;;;;;;;;;24.55;31.42;101581.34;5090901;28;20044;-61
2021/10/16 11:08:10;;;;;;;;;;;;;;;24.63;31.30;101567.13;5090765;28;19998;-59
2021/10/16 11:10:37;;;;;;;;;;;;;;;24.79;31.14;101571.78;5076178;28;19925;-61
2021/10/16 11:13:11;;;;;;;;;;;;;;;24.77;31.32;101560.34;5074848;28;19940;-60
2021/10/16 11:15:38;;;;;;;;;;;;;;;24.88;31.30;101557.38;5090882;28;19927;-58
2021/10/16 11:18:11;;;;;;;;;;;;;;;24.98;31.39;101556.44;5090723;28;19931;-59
2021/10/16 11:20:37;;;;;;;;;;;;;;;25.06;31.30;101551.06;5091089;28;19924;-58
2021/10/16 11:23:04;;;;;;;;;;;;;;;25.18;31.21;101555.16;5079960;28;19932;-59
2021/10/16 11:25:32;;;;;;;;;;;;;;;25.26;30.85;101552.47;5082983;28;19924;-59
2021/10/16 11:27:58;;;;;;;;;;;;;;;25.24;30.89;101541.06;5083586;28;19928;-58
2021/10/16 11:30:25;;;;;;;;;;;;;;;25.34;30.54;101530.16;5090550;28;19924;-59
2021/10/16 11:32:58;;;;;;;;;;;;;;;25.49;30.38;101532.22;5090421;28;19924;-58
2021/10/16 11:35:25;;;;;;;;;;;;;;;25.55;30.17;101527.03;5090181;28;19931;-58
2021/10/16 11:37:51;;;;;;;;;;;;;;;25.63;30.22;101525.34;5090536;28;19924;-58
2021/10/16 11:40:19;;;;;;;;;;;;;;;25.72;29.86;101516.28;5090095;28;19928;-58
2021/10/16 11:42:50;;;;;;;;;;;;;;;25.78;29.75;101512.09;5087842;28;19924;-58
2021/10/16 11:45:18;;;;;;;;;;;;;;;25.85;29.28;101511.25;5078378;28;19924;-59
2021/10/16 11:47:49;;;;;;;;;;;;;;;25.92;29.26;101498.78;5090198;28;19930;-59
2021/10/16 11:50:17;;;;;;;;;;;;;;;26.07;29.13;101503.50;5090395;28;19974;-59
2021/10/16 11:52:47;;;;;;;;;;;;;;;26.11;29.05;101501.31;5090075;28;19931;-59
2021/10/16 11:55:23;;;;;;;;;;;;;;;26.21;28.74;101502.81;5090352;28;19924;-59
2021/10/16 11:57:50;;;;;;;;;;;;;;;26.24;28.68;101493.53;5089752;28;19981;-57
2021/10/16 12:00:21;;;;;;;;;;;;;;;26.29;28.28;101501.94;5089005;28;20504;-59
2021/10/16 12:02:48;;;;;;;;;;;;;;;26.37;28.13;101485.78;5088370;28;19928;-58
2021/10/16 12:05:17;;;;;;;;;;;;;;;26.47;27.94;101490.94;5090177;28;19993;-59
2021/10/16 12:07:44;;;;;;;;;;;;;;;26.54;27.58;101483.84;5089566;28;19924;-58
2021/10/16 12:10:25;;;;;;;;;;;;;;;26.56;27.57;101483.69;5090041;28;19924;-59
2021/10/16 12:13:09;;;;;;;;;;;;;;;26.67;27.46;101477.91;5090117;28;19924;-58
2021/10/16 12:15:42;;;;;;;;;;;;;;;26.72;27.27;101477.38;5090260;28;19946;-58
2021/10/16 12:18:19;;;;;;;;;;;;;;;26.71;27.17;101479.22;5085279;28;20017;-59
2021/10/16 12:20:50;;;;;;;;;;;;;;;26.77;27.09;101476.91;5089486;28;20395;-58
2021/10/16 12:23:17;;;;;;;;;;;;;;;26.78;26.94;101473.16;5089160;28;20280;-59
2021/10/16 12:25:46;;;;;;;;;;;;;;;26.84;26.58;101470.63;5089148;28;19924;-59
2021/10/16 12:28:12;;;;;;;;;;;;;;;26.71;26.75;101467.63;5089542;28;19928;-59
2021/10/16 12:30:56;;;;;;;;;;;;;;;26.63;27.02;101473.06;5089391;28;19931;-59
2021/10/16 12:33:23;;;;;;;;;;;;;;;26.52;27.22;101461.66;5089706;28;19924;-60
2021/10/16 12:36:02;;;;;;;;;;;;;;;26.81;26.80;101459.38;5087646;28;20426;-59
2021/10/16 12:38:47;;;;;;;;;;;;;;;26.91;26.33;101454.59;5088726;28;19931;-60
2021/10/16 12:41:24;;;;;;;;;;;;;;;27.08;25.95;101455.31;5074945;28;19924;-59
2021/10/16 12:43:51;;;;;;;;;;;;;;;27.16;25.84;101455.28;5089118;28;20309;-58